sensor_id;sensor_type;location;lat;lon;timestamp;P1;durP1;ratioP1;P2;durP2;ratioP2
31298;SDS011;17927;52.350;13.402;2023-03-01T00:01:37;33.03;;;19.58;;
31298;SDS011;17927;52.350;13.402;2023-03-01T00:04:02;31.10;;;19.35;;
31298;SDS011;17927;52.350;13.402;2023-03-01T00:06:28;30.50;;;18.60;;
31298;SDS011;17927;52.350;13.402;2023-03-01T00:08:53;30.27;;;18.98;;
31298;SDS011;17927;52.350;13.402;2023-03-01T00:11:20;34.90;;;19.10;;
31298;SDS011;17927;52.350;13.402;2023-03-01T00:13:49;30.40;;;18.83;;
31298;SDS011;17927;52.350;13.402;2023-03-01T00:16:17;32.72;;;19.55;;
31298;SDS011;17927;52.350;13.402;2023-03-01T00:18:45;31.50;;;19.02;;
31298;SDS011;17927;52.350;13.402;2023-03-01T00:21:10;29.17;;;17.70;;
31298;SDS011;17927;52.350;13.402;2023-03-01T00:23:36;27.48;;;17.25;;
31298;SDS011;17927;52.350;13.402;2023-03-01T00:26:05;28.50;;;16.63;;
31298;SDS011;17927;52.350;13.402;2023-03-01T00:28:31;26.60;;;16.02;;
31298;SDS011;17927;52.350;13.402;2023-03-01T00:31:02;28.77;;;14.80;;
31298;SDS011;17927;52.350;13.402;2023-03-01T00:33:31;30.48;;;15.50;;
31298;SDS011;17927;52.350;13.402;2023-03-01T00:35:57;24.95;;;15.38;;
31298;SDS011;17927;52.350;13.402;2023-03-01T00:38:23;23.95;;;13.82;;
31298;SDS011;17927;52.350;13.402;2023-03-01T00:40:48;23.42;;;13.77;;
31298;SDS011;17927;52.350;13.402;2023-03-01T00:43:14;21.45;;;13.88;;
31298;SDS011;17927;52.350;13.402;2023-03-01T00:45:39;28.00;;;14.65;;
31298;SDS011;17927;52.350;13.402;2023-03-01T00:48:04;25.98;;;14.45;;
31298;SDS011;17927;52.350;13.402;2023-03-01T00:50:30;26.02;;;14.10;;
31298;SDS011;17927;52.350;13.402;2023-03-01T00:52:55;20.45;;;13.63;;
31298;SDS011;17927;52.350;13.402;2023-03-01T00:55:21;22.63;;;12.93;;
31298;SDS011;17927;52.350;13.402;2023-03-01T00:57:47;24.63;;;13.25;;
31298;SDS011;17927;52.350;13.402;2023-03-01T01:00:12;22.88;;;12.75;;
31298;SDS011;17927;52.350;13.402;2023-03-01T01:02:37;20.23;;;12.60;;
31298;SDS011;17927;52.350;13.402;2023-03-01T01:05:03;22.90;;;13.48;;
31298;SDS011;17927;52.350;13.402;2023-03-01T01:07:29;22.10;;;13.38;;
31298;SDS011;17927;52.350;13.402;2023-03-01T01:09:54;18.90;;;11.32;;
31298;SDS011;17927;52.350;13.402;2023-03-01T01:12:20;21.70;;;13.13;;
31298;SDS011;17927;52.350;13.402;2023-03-01T01:14:45;23.27;;;13.25;;
31298;SDS011;17927;52.350;13.402;2023-03-01T01:17:11;23.92;;;12.38;;
31298;SDS011;17927;52.350;13.402;2023-03-01T01:19:36;27.92;;;13.40;;
31298;SDS011;17927;52.350;13.402;2023-03-01T01:22:01;19.75;;;12.00;;
31298;SDS011;17927;52.350;13.402;2023-03-01T01:24:27;21.08;;;13.18;;
31298;SDS011;17927;52.350;13.402;2023-03-01T01:26:52;23.75;;;13.70;;
31298;SDS011;17927;52.350;13.402;2023-03-01T01:29:17;20.23;;;13.35;;
31298;SDS011;17927;52.350;13.402;2023-03-01T01:31:42;25.85;;;15.30;;
31298;SDS011;17927;52.350;13.402;2023-03-01T01:34:12;29.02;;;14.18;;
31298;SDS011;17927;52.350;13.402;2023-03-01T01:36:39;23.58;;;14.00;;
31298;SDS011;17927;52.350;13.402;2023-03-01T01:39:04;22.23;;;13.80;;
31298;SDS011;17927;52.350;13.402;2023-03-01T01:41:30;26.52;;;13.77;;
31298;SDS011;17927;52.350;13.402;2023-03-01T01:46:53;26.55;;;14.15;;
31298;SDS011;17927;52.350;13.402;2023-03-01T01:49:20;26.70;;;14.25;;
31298;SDS011;17927;52.350;13.402;2023-03-01T01:51:51;26.33;;;13.80;;
31298;SDS011;17927;52.350;13.402;2023-03-01T01:54:24;28.05;;;14.50;;
31298;SDS011;17927;52.350;13.402;2023-03-01T01:56:56;22.98;;;13.23;;
31298;SDS011;17927;52.350;13.402;2023-03-01T01:59:25;28.93;;;14.47;;
31298;SDS011;17927;52.350;13.402;2023-03-01T02:01:53;26.40;;;14.40;;
31298;SDS011;17927;52.350;13.402;2023-03-01T02:04:19;22.67;;;13.40;;
31298;SDS011;17927;52.350;13.402;2023-03-01T02:06:48;26.55;;;13.30;;
31298;SDS011;17927;52.350;13.402;2023-03-01T02:09:19;23.48;;;13.20;;
31298;SDS011;17927;52.350;13.402;2023-03-01T02:11:46;24.40;;;14.20;;
31298;SDS011;17927;52.350;13.402;2023-03-01T02:14:13;25.48;;;13.32;;
31298;SDS011;17927;52.350;13.402;2023-03-01T02:16:40;26.50;;;13.95;;
31298;SDS011;17927;52.350;13.402;2023-03-01T02:19:06;23.20;;;13.05;;
31298;SDS011;17927;52.350;13.402;2023-03-01T02:21:53;18.30;;;12.80;;
31298;SDS011;17927;52.350;13.402;2023-03-01T02:24:32;21.75;;;12.57;;
31298;SDS011;17927;52.350;13.402;2023-03-01T02:27:10;20.80;;;13.73;;
31298;SDS011;17927;52.350;13.402;2023-03-01T02:29:35;24.98;;;13.68;;
31298;SDS011;17927;52.350;13.402;2023-03-01T02:32:01;22.75;;;13.60;;
31298;SDS011;17927;52.350;13.402;2023-03-01T02:34:28;22.25;;;13.15;;
31298;SDS011;17927;52.350;13.402;2023-03-01T02:36:57;28.17;;;14.02;;
31298;SDS011;17927;52.350;13.402;2023-03-01T02:39:33;23.92;;;13.52;;
31298;SDS011;17927;52.350;13.402;2023-03-01T02:42:06;21.95;;;13.23;;
31298;SDS011;17927;52.350;13.402;2023-03-01T02:44:35;21.77;;;14.10;;
31298;SDS011;17927;52.350;13.402;2023-03-01T02:47:01;27.00;;;14.18;;
31298;SDS011;17927;52.350;13.402;2023-03-01T02:49:29;22.52;;;13.18;;
31298;SDS011;17927;52.350;13.402;2023-03-01T02:55:08;22.65;;;13.27;;
31298;SDS011;17927;52.350;13.402;2023-03-01T02:57:37;22.88;;;13.85;;
31298;SDS011;17927;52.350;13.402;2023-03-01T03:00:08;28.35;;;14.95;;
31298;SDS011;17927;52.350;13.402;2023-03-01T03:02:46;24.40;;;13.98;;
31298;SDS011;17927;52.350;13.402;2023-03-01T03:05:15;20.77;;;12.90;;
31298;SDS011;17927;52.350;13.402;2023-03-01T03:07:46;28.95;;;13.55;;
31298;SDS011;17927;52.350;13.402;2023-03-01T03:10:14;21.10;;;13.05;;
31298;SDS011;17927;52.350;13.402;2023-03-01T03:12:44;27.02;;;13.23;;
31298;SDS011;17927;52.350;13.402;2023-03-01T03:15:14;25.83;;;14.55;;
31298;SDS011;17927;52.350;13.402;2023-03-01T03:17:40;24.23;;;14.38;;
31298;SDS011;17927;52.350;13.402;2023-03-01T03:20:08;27.23;;;13.85;;
31298;SDS011;17927;52.350;13.402;2023-03-01T03:22:37;23.10;;;13.80;;
31298;SDS011;17927;52.350;13.402;2023-03-01T03:25:03;28.83;;;14.98;;
31298;SDS011;17927;52.350;13.402;2023-03-01T03:27:28;24.67;;;14.35;;
31298;SDS011;17927;52.350;13.402;2023-03-01T03:29:53;31.05;;;15.20;;
31298;SDS011;17927;52.350;13.402;2023-03-01T03:32:19;28.42;;;15.10;;
31298;SDS011;17927;52.350;13.402;2023-03-01T03:34:44;27.25;;;14.48;;
31298;SDS011;17927;52.350;13.402;2023-03-01T03:37:09;27.38;;;15.15;;
31298;SDS011;17927;52.350;13.402;2023-03-01T03:39:55;25.63;;;14.80;;
31298;SDS011;17927;52.350;13.402;2023-03-01T03:42:21;25.42;;;15.48;;
31298;SDS011;17927;52.350;13.402;2023-03-01T03:44:47;26.23;;;14.73;;
31298;SDS011;17927;52.350;13.402;2023-03-01T03:47:12;23.23;;;14.52;;
31298;SDS011;17927;52.350;13.402;2023-03-01T03:49:38;25.70;;;14.73;;
31298;SDS011;17927;52.350;13.402;2023-03-01T03:52:03;26.80;;;13.98;;
31298;SDS011;17927;52.350;13.402;2023-03-01T03:54:28;24.88;;;14.50;;
31298;SDS011;17927;52.350;13.402;2023-03-01T03:56:54;29.15;;;16.17;;
31298;SDS011;17927;52.350;13.402;2023-03-01T03:59:19;27.35;;;15.07;;
31298;SDS011;17927;52.350;13.402;2023-03-01T04:01:44;31.58;;;15.13;;
31298;SDS011;17927;52.350;13.402;2023-03-01T04:04:10;26.60;;;14.13;;
31298;SDS011;17927;52.350;13.402;2023-03-01T04:06:35;23.75;;;14.18;;
31298;SDS011;17927;52.350;13.402;2023-03-01T04:09:00;26.50;;;14.32;;
31298;SDS011;17927;52.350;13.402;2023-03-01T04:11:27;25.75;;;14.35;;
31298;SDS011;17927;52.350;13.402;2023-03-01T04:13:53;23.65;;;13.40;;
31298;SDS011;17927;52.350;13.402;2023-03-01T04:16:21;27.40;;;15.00;;
31298;SDS011;17927;52.350;13.402;2023-03-01T04:18:47;26.77;;;13.93;;
31298;SDS011;17927;52.350;13.402;2023-03-01T04:21:12;23.35;;;13.77;;
31298;SDS011;17927;52.350;13.402;2023-03-01T04:23:38;22.02;;;13.52;;
31298;SDS011;17927;52.350;13.402;2023-03-01T04:26:05;18.15;;;12.15;;
31298;SDS011;17927;52.350;13.402;2023-03-01T04:28:34;22.55;;;13.18;;
31298;SDS011;17927;52.350;13.402;2023-03-01T04:33:37;22.05;;;11.98;;
31298;SDS011;17927;52.350;13.402;2023-03-01T04:36:03;23.55;;;12.82;;
31298;SDS011;17927;52.350;13.402;2023-03-01T04:38:30;24.33;;;12.32;;
31298;SDS011;17927;52.350;13.402;2023-03-01T04:40:55;22.40;;;14.13;;
31298;SDS011;17927;52.350;13.402;2023-03-01T04:43:20;23.50;;;14.30;;
31298;SDS011;17927;52.350;13.402;2023-03-01T04:45:46;22.02;;;14.20;;
31298;SDS011;17927;52.350;13.402;2023-03-01T04:48:11;18.80;;;12.07;;
31298;SDS011;17927;52.350;13.402;2023-03-01T04:50:36;21.13;;;11.50;;
31298;SDS011;17927;52.350;13.402;2023-03-01T04:53:02;18.88;;;11.80;;
31298;SDS011;17927;52.350;13.402;2023-03-01T04:55:27;17.08;;;10.90;;
31298;SDS011;17927;52.350;13.402;2023-03-01T04:57:53;22.40;;;11.88;;
31298;SDS011;17927;52.350;13.402;2023-03-01T05:00:19;19.90;;;10.82;;
31298;SDS011;17927;52.350;13.402;2023-03-01T05:02:46;21.13;;;10.65;;
31298;SDS011;17927;52.350;13.402;2023-03-01T05:05:31;20.92;;;11.40;;
31298;SDS011;17927;52.350;13.402;2023-03-01T05:08:00;17.90;;;10.55;;
31298;SDS011;17927;52.350;13.402;2023-03-01T05:10:27;18.58;;;10.80;;
31298;SDS011;17927;52.350;13.402;2023-03-01T05:12:57;17.03;;;10.50;;
31298;SDS011;17927;52.350;13.402;2023-03-01T05:15:23;19.95;;;11.02;;
31298;SDS011;17927;52.350;13.402;2023-03-01T05:17:50;16.35;;;10.68;;
31298;SDS011;17927;52.350;13.402;2023-03-01T05:20:16;17.13;;;10.63;;
31298;SDS011;17927;52.350;13.402;2023-03-01T05:22:41;16.13;;;10.15;;
31298;SDS011;17927;52.350;13.402;2023-03-01T05:25:06;16.58;;;11.27;;
31298;SDS011;17927;52.350;13.402;2023-03-01T05:27:32;20.15;;;11.05;;
31298;SDS011;17927;52.350;13.402;2023-03-01T05:29:58;20.08;;;12.15;;
31298;SDS011;17927;52.350;13.402;2023-03-01T05:32:25;22.50;;;11.82;;
31298;SDS011;17927;52.350;13.402;2023-03-01T05:34:51;21.40;;;11.32;;
31298;SDS011;17927;52.350;13.402;2023-03-01T05:37:17;17.10;;;10.75;;
31298;SDS011;17927;52.350;13.402;2023-03-01T05:39:42;16.90;;;10.30;;
31298;SDS011;17927;52.350;13.402;2023-03-01T05:42:09;17.88;;;11.52;;
31298;SDS011;17927;52.350;13.402;2023-03-01T05:44:36;21.55;;;10.98;;
31298;SDS011;17927;52.350;13.402;2023-03-01T05:47:01;20.27;;;11.70;;
31298;SDS011;17927;52.350;13.402;2023-03-01T05:49:26;19.42;;;10.98;;
31298;SDS011;17927;52.350;13.402;2023-03-01T05:51:52;21.98;;;11.13;;
31298;SDS011;17927;52.350;13.402;2023-03-01T05:54:21;17.15;;;11.13;;
31298;SDS011;17927;52.350;13.402;2023-03-01T05:56:47;19.00;;;10.63;;
31298;SDS011;17927;52.350;13.402;2023-03-01T05:59:12;19.35;;;10.65;;
31298;SDS011;17927;52.350;13.402;2023-03-01T06:01:40;18.98;;;11.52;;
31298;SDS011;17927;52.350;13.402;2023-03-01T06:04:05;19.27;;;11.15;;
31298;SDS011;17927;52.350;13.402;2023-03-01T06:06:37;21.60;;;11.10;;
31298;SDS011;17927;52.350;13.402;2023-03-01T06:09:03;21.40;;;12.00;;
31298;SDS011;17927;52.350;13.402;2023-03-01T06:11:29;19.95;;;12.07;;
31298;SDS011;17927;52.350;13.402;2023-03-01T06:13:54;24.02;;;13.65;;
31298;SDS011;17927;52.350;13.402;2023-03-01T06:16:19;19.15;;;11.27;;
31298;SDS011;17927;52.350;13.402;2023-03-01T06:18:44;22.33;;;12.02;;
31298;SDS011;17927;52.350;13.402;2023-03-01T06:21:10;25.50;;;11.68;;
31298;SDS011;17927;52.350;13.402;2023-03-01T06:23:35;20.20;;;12.50;;
31298;SDS011;17927;52.350;13.402;2023-03-01T06:26:04;20.15;;;12.02;;
31298;SDS011;17927;52.350;13.402;2023-03-01T06:28:30;22.60;;;12.20;;
31298;SDS011;17927;52.350;13.402;2023-03-01T06:30:55;18.70;;;12.32;;
31298;SDS011;17927;52.350;13.402;2023-03-01T06:33:21;22.05;;;11.80;;
31298;SDS011;17927;52.350;13.402;2023-03-01T06:35:48;21.75;;;12.48;;
31298;SDS011;17927;52.350;13.402;2023-03-01T06:38:13;22.77;;;11.77;;
31298;SDS011;17927;52.350;13.402;2023-03-01T06:40:40;26.23;;;13.40;;
31298;SDS011;17927;52.350;13.402;2023-03-01T06:43:05;22.40;;;11.27;;
31298;SDS011;17927;52.350;13.402;2023-03-01T06:45:32;22.25;;;12.30;;
31298;SDS011;17927;52.350;13.402;2023-03-01T06:48:04;25.25;;;11.77;;
31298;SDS011;17927;52.350;13.402;2023-03-01T06:50:31;21.45;;;11.93;;
31298;SDS011;17927;52.350;13.402;2023-03-01T06:52:57;17.95;;;10.93;;
31298;SDS011;17927;52.350;13.402;2023-03-01T06:55:22;21.75;;;12.35;;
31298;SDS011;17927;52.350;13.402;2023-03-01T06:57:48;23.25;;;12.75;;
31298;SDS011;17927;52.350;13.402;2023-03-01T07:00:13;27.27;;;12.25;;
31298;SDS011;17927;52.350;13.402;2023-03-01T07:02:39;19.75;;;11.65;;
31298;SDS011;17927;52.350;13.402;2023-03-01T07:05:04;21.77;;;12.07;;
31298;SDS011;17927;52.350;13.402;2023-03-01T07:07:30;24.20;;;12.82;;
31298;SDS011;17927;52.350;13.402;2023-03-01T07:09:55;25.23;;;12.95;;
31298;SDS011;17927;52.350;13.402;2023-03-01T07:12:20;28.00;;;13.63;;
31298;SDS011;17927;52.350;13.402;2023-03-01T07:14:46;20.75;;;12.35;;
31298;SDS011;17927;52.350;13.402;2023-03-01T07:17:11;24.67;;;13.85;;
31298;SDS011;17927;52.350;13.402;2023-03-01T07:19:36;19.15;;;12.60;;
31298;SDS011;17927;52.350;13.402;2023-03-01T07:22:03;24.23;;;12.52;;
31298;SDS011;17927;52.350;13.402;2023-03-01T07:24:29;24.13;;;13.00;;
31298;SDS011;17927;52.350;13.402;2023-03-01T07:26:54;20.63;;;13.05;;
31298;SDS011;17927;52.350;13.402;2023-03-01T07:29:19;22.30;;;12.57;;
31298;SDS011;17927;52.350;13.402;2023-03-01T07:31:44;18.80;;;12.00;;
31298;SDS011;17927;52.350;13.402;2023-03-01T07:34:10;19.50;;;12.30;;
31298;SDS011;17927;52.350;13.402;2023-03-01T07:36:35;20.55;;;12.32;;
31298;SDS011;17927;52.350;13.402;2023-03-01T07:39:01;24.88;;;12.63;;
31298;SDS011;17927;52.350;13.402;2023-03-01T07:41:28;20.77;;;12.30;;
31298;SDS011;17927;52.350;13.402;2023-03-01T07:43:53;20.77;;;12.88;;
31298;SDS011;17927;52.350;13.402;2023-03-01T07:46:18;17.55;;;12.75;;
31298;SDS011;17927;52.350;13.402;2023-03-01T07:48:44;18.25;;;12.40;;
31298;SDS011;17927;52.350;13.402;2023-03-01T07:51:09;23.48;;;12.50;;
31298;SDS011;17927;52.350;13.402;2023-03-01T07:53:34;22.85;;;13.00;;
31298;SDS011;17927;52.350;13.402;2023-03-01T07:56:00;21.27;;;12.35;;
31298;SDS011;17927;52.350;13.402;2023-03-01T07:58:36;20.15;;;11.93;;
31298;SDS011;17927;52.350;13.402;2023-03-01T08:01:04;21.38;;;12.20;;
31298;SDS011;17927;52.350;13.402;2023-03-01T08:03:31;18.40;;;11.65;;
31298;SDS011;17927;52.350;13.402;2023-03-01T08:05:58;15.85;;;11.63;;
31298;SDS011;17927;52.350;13.402;2023-03-01T08:08:24;22.45;;;11.45;;
31298;SDS011;17927;52.350;13.402;2023-03-01T08:10:50;25.20;;;12.82;;
31298;SDS011;17927;52.350;13.402;2023-03-01T08:13:15;18.30;;;11.23;;
31298;SDS011;17927;52.350;13.402;2023-03-01T08:15:40;21.42;;;11.82;;
31298;SDS011;17927;52.350;13.402;2023-03-01T08:18:05;17.50;;;10.63;;
31298;SDS011;17927;52.350;13.402;2023-03-01T08:20:31;16.75;;;10.70;;
31298;SDS011;17927;52.350;13.402;2023-03-01T08:22:57;17.08;;;10.32;;
31298;SDS011;17927;52.350;13.402;2023-03-01T08:25:23;16.13;;;10.50;;
31298;SDS011;17927;52.350;13.402;2023-03-01T08:27:48;24.00;;;10.63;;
31298;SDS011;17927;52.350;13.402;2023-03-01T08:30:13;14.68;;;10.07;;
31298;SDS011;17927;52.350;13.402;2023-03-01T08:32:39;16.85;;;9.88;;
31298;SDS011;17927;52.350;13.402;2023-03-01T08:35:04;11.65;;;8.38;;
31298;SDS011;17927;52.350;13.402;2023-03-01T08:37:30;18.70;;;9.32;;
31298;SDS011;17927;52.350;13.402;2023-03-01T08:39:57;14.25;;;8.88;;
31298;SDS011;17927;52.350;13.402;2023-03-01T08:42:23;12.25;;;8.23;;
31298;SDS011;17927;52.350;13.402;2023-03-01T08:44:48;13.65;;;8.90;;
31298;SDS011;17927;52.350;13.402;2023-03-01T08:47:13;13.93;;;8.38;;
31298;SDS011;17927;52.350;13.402;2023-03-01T08:49:39;19.08;;;8.20;;
31298;SDS011;17927;52.350;13.402;2023-03-01T08:52:04;14.50;;;8.55;;
31298;SDS011;17927;52.350;13.402;2023-03-01T08:54:29;13.20;;;8.52;;
31298;SDS011;17927;52.350;13.402;2023-03-01T08:56:55;14.38;;;7.75;;
31298;SDS011;17927;52.350;13.402;2023-03-01T08:59:20;11.88;;;8.32;;
31298;SDS011;17927;52.350;13.402;2023-03-01T09:01:45;8.77;;;7.45;;
31298;SDS011;17927;52.350;13.402;2023-03-01T09:04:11;10.88;;;6.88;;
31298;SDS011;17927;52.350;13.402;2023-03-01T09:06:37;11.40;;;7.45;;
31298;SDS011;17927;52.350;13.402;2023-03-01T09:09:03;15.45;;;6.70;;
31298;SDS011;17927;52.350;13.402;2023-03-01T09:11:29;12.40;;;7.80;;
31298;SDS011;17927;52.350;13.402;2023-03-01T09:13:55;8.55;;;6.95;;
31298;SDS011;17927;52.350;13.402;2023-03-01T09:16:21;10.98;;;7.13;;
31298;SDS011;17927;52.350;13.402;2023-03-01T09:18:51;11.90;;;7.00;;
31298;SDS011;17927;52.350;13.402;2023-03-01T09:21:18;10.38;;;5.93;;
31298;SDS011;17927;52.350;13.402;2023-03-01T09:23:46;12.13;;;6.95;;
31298;SDS011;17927;52.350;13.402;2023-03-01T09:26:13;9.15;;;6.50;;
31298;SDS011;17927;52.350;13.402;2023-03-01T09:28:41;8.90;;;6.03;;
31298;SDS011;17927;52.350;13.402;2023-03-01T09:31:07;15.15;;;6.18;;
31298;SDS011;17927;52.350;13.402;2023-03-01T09:33:33;10.43;;;5.88;;
31298;SDS011;17927;52.350;13.402;2023-03-01T09:35:59;10.77;;;6.38;;
31298;SDS011;17927;52.350;13.402;2023-03-01T09:38:25;11.82;;;6.32;;
31298;SDS011;17927;52.350;13.402;2023-03-01T09:40:51;10.45;;;6.43;;
31298;SDS011;17927;52.350;13.402;2023-03-01T09:45:49;6.15;;;4.65;;
31298;SDS011;17927;52.350;13.402;2023-03-01T09:48:20;6.60;;;4.30;;
31298;SDS011;17927;52.350;13.402;2023-03-01T09:50:48;4.65;;;3.55;;
31298;SDS011;17927;52.350;13.402;2023-03-01T09:53:36;5.30;;;3.33;;
31298;SDS011;17927;52.350;13.402;2023-03-01T09:56:15;3.63;;;3.20;;
31298;SDS011;17927;52.350;13.402;2023-03-01T09:58:51;4.82;;;3.60;;
31298;SDS011;17927;52.350;13.402;2023-03-01T10:09:34;4.13;;;3.50;;
31298;SDS011;17927;52.350;13.402;2023-03-01T10:12:02;6.50;;;3.78;;
31298;SDS011;17927;52.350;13.402;2023-03-01T10:14:35;3.42;;;2.80;;
31298;SDS011;17927;52.350;13.402;2023-03-01T10:19:49;4.10;;;2.95;;
31298;SDS011;17927;52.350;13.402;2023-03-01T10:22:21;4.50;;;3.45;;
31298;SDS011;17927;52.350;13.402;2023-03-01T10:24:53;5.35;;;3.92;;
31298;SDS011;17927;52.350;13.402;2023-03-01T10:27:24;3.70;;;3.13;;
31298;SDS011;17927;52.350;13.402;2023-03-01T10:30:04;3.30;;;3.00;;
31298;SDS011;17927;52.350;13.402;2023-03-01T10:32:31;3.30;;;3.00;;
31298;SDS011;17927;52.350;13.402;2023-03-01T10:34:57;5.60;;;3.03;;
31298;SDS011;17927;52.350;13.402;2023-03-01T10:37:22;5.03;;;3.33;;
31298;SDS011;17927;52.350;13.402;2023-03-01T10:40:01;5.22;;;3.13;;
31298;SDS011;17927;52.350;13.402;2023-03-01T10:42:31;3.00;;;2.70;;
31298;SDS011;17927;52.350;13.402;2023-03-01T10:44:58;4.07;;;2.60;;
31298;SDS011;17927;52.350;13.402;2023-03-01T10:47:40;2.83;;;2.40;;
31298;SDS011;17927;52.350;13.402;2023-03-01T10:50:08;3.95;;;2.55;;
31298;SDS011;17927;52.350;13.402;2023-03-01T10:52:55;5.32;;;2.60;;
31298;SDS011;17927;52.350;13.402;2023-03-01T10:55:35;2.75;;;2.55;;
31298;SDS011;17927;52.350;13.402;2023-03-01T11:01:02;5.18;;;3.83;;
31298;SDS011;17927;52.350;13.402;2023-03-01T11:03:31;5.53;;;4.50;;
31298;SDS011;17927;52.350;13.402;2023-03-01T11:05:59;4.95;;;3.60;;
31298;SDS011;17927;52.350;13.402;2023-03-01T11:08:41;4.55;;;3.78;;
31298;SDS011;17927;52.350;13.402;2023-03-01T11:16:17;6.75;;;5.65;;
31298;SDS011;17927;52.350;13.402;2023-03-01T11:18:58;8.90;;;5.40;;
31298;SDS011;17927;52.350;13.402;2023-03-01T11:21:26;10.55;;;5.30;;
31298;SDS011;17927;52.350;13.402;2023-03-01T11:23:55;7.13;;;5.82;;
31298;SDS011;17927;52.350;13.402;2023-03-01T11:26:24;11.40;;;6.63;;
31298;SDS011;17927;52.350;13.402;2023-03-01T11:28:50;9.07;;;6.72;;
31298;SDS011;17927;52.350;13.402;2023-03-01T11:31:20;7.03;;;5.68;;
31298;SDS011;17927;52.350;13.402;2023-03-01T11:36:47;8.90;;;6.80;;
31298;SDS011;17927;52.350;13.402;2023-03-01T11:42:10;8.52;;;6.10;;
31298;SDS011;17927;52.350;13.402;2023-03-01T11:44:39;8.75;;;6.07;;
31298;SDS011;17927;52.350;13.402;2023-03-01T11:50:11;8.00;;;6.03;;
31298;SDS011;17927;52.350;13.402;2023-03-01T11:53:42;6.18;;;5.25;;
31298;SDS011;17927;52.350;13.402;2023-03-01T11:56:07;6.00;;;5.13;;
31298;SDS011;17927;52.350;13.402;2023-03-01T11:58:45;8.13;;;6.07;;
31298;SDS011;17927;52.350;13.402;2023-03-01T12:01:44;9.25;;;6.20;;
31298;SDS011;17927;52.350;13.402;2023-03-01T12:04:24;8.70;;;6.55;;
31298;SDS011;17927;52.350;13.402;2023-03-01T12:10:19;10.35;;;5.40;;
31298;SDS011;17927;52.350;13.402;2023-03-01T12:13:15;9.90;;;6.00;;
31298;SDS011;17927;52.350;13.402;2023-03-01T12:22:16;9.70;;;6.85;;
31298;SDS011;17927;52.350;13.402;2023-03-01T12:30:25;13.25;;;4.90;;
31298;SDS011;17927;52.350;13.402;2023-03-01T12:33:04;6.38;;;5.35;;
31298;SDS011;17927;52.350;13.402;2023-03-01T12:36:06;6.22;;;5.13;;
31298;SDS011;17927;52.350;13.402;2023-03-01T12:38:41;6.60;;;4.97;;
31298;SDS011;17927;52.350;13.402;2023-03-01T12:41:13;8.18;;;4.93;;
31298;SDS011;17927;52.350;13.402;2023-03-01T12:43:47;6.00;;;4.80;;
31298;SDS011;17927;52.350;13.402;2023-03-01T12:49:15;6.53;;;4.45;;
31298;SDS011;17927;52.350;13.402;2023-03-01T12:51:44;7.47;;;4.63;;
31298;SDS011;17927;52.350;13.402;2023-03-01T12:54:22;7.43;;;4.53;;
31298;SDS011;17927;52.350;13.402;2023-03-01T12:56:55;6.05;;;4.72;;
31298;SDS011;17927;52.350;13.402;2023-03-01T12:59:38;6.53;;;4.65;;
31298;SDS011;17927;52.350;13.402;2023-03-01T13:02:23;5.90;;;4.45;;
31298;SDS011;17927;52.350;13.402;2023-03-01T13:07:43;5.72;;;4.50;;
31298;SDS011;17927;52.350;13.402;2023-03-01T13:20:19;5.03;;;4.50;;
31298;SDS011;17927;52.350;13.402;2023-03-01T13:22:48;8.45;;;4.60;;
31298;SDS011;17927;52.350;13.402;2023-03-01T13:25:26;4.82;;;4.35;;
31298;SDS011;17927;52.350;13.402;2023-03-01T13:27:51;7.07;;;4.55;;
31298;SDS011;17927;52.350;13.402;2023-03-01T13:30:55;4.35;;;3.95;;
31298;SDS011;17927;52.350;13.402;2023-03-01T13:35:48;5.57;;;4.53;;
31298;SDS011;17927;52.350;13.402;2023-03-01T13:38:36;4.93;;;4.40;;
31298;SDS011;17927;52.350;13.402;2023-03-01T13:41:08;4.55;;;4.05;;
31298;SDS011;17927;52.350;13.402;2023-03-01T13:43:36;7.55;;;4.55;;
31298;SDS011;17927;52.350;13.402;2023-03-01T13:46:10;7.13;;;4.63;;
31298;SDS011;17927;52.350;13.402;2023-03-01T13:48:42;5.22;;;4.30;;
31298;SDS011;17927;52.350;13.402;2023-03-01T13:51:10;6.07;;;3.50;;
31298;SDS011;17927;52.350;13.402;2023-03-01T13:53:42;5.57;;;3.70;;
31298;SDS011;17927;52.350;13.402;2023-03-01T13:56:13;4.93;;;3.58;;
31298;SDS011;17927;52.350;13.402;2023-03-01T13:58:53;6.47;;;3.83;;
31298;SDS011;17927;52.350;13.402;2023-03-01T14:01:28;4.15;;;3.75;;
31298;SDS011;17927;52.350;13.402;2023-03-01T14:03:54;5.97;;;3.38;;
31298;SDS011;17927;52.350;13.402;2023-03-01T14:06:21;6.60;;;3.90;;
31298;SDS011;17927;52.350;13.402;2023-03-01T14:08:49;5.30;;;3.47;;
31298;SDS011;17927;52.350;13.402;2023-03-01T14:17:09;3.55;;;3.10;;
31298;SDS011;17927;52.350;13.402;2023-03-01T14:19:55;2.60;;;2.40;;
31298;SDS011;17927;52.350;13.402;2023-03-01T14:22:24;4.45;;;2.45;;
31298;SDS011;17927;52.350;13.402;2023-03-01T14:24:56;4.43;;;2.47;;
31298;SDS011;17927;52.350;13.402;2023-03-01T14:27:37;2.72;;;2.50;;
31298;SDS011;17927;52.350;13.402;2023-03-01T14:30:10;2.63;;;2.30;;
31298;SDS011;17927;52.350;13.402;2023-03-01T14:32:51;3.05;;;2.40;;
31298;SDS011;17927;52.350;13.402;2023-03-01T14:35:19;2.65;;;2.22;;
31298;SDS011;17927;52.350;13.402;2023-03-01T14:37:46;2.78;;;2.58;;
31298;SDS011;17927;52.350;13.402;2023-03-01T14:40:22;2.70;;;1.90;;
31298;SDS011;17927;52.350;13.402;2023-03-01T14:42:49;2.92;;;2.08;;
31298;SDS011;17927;52.350;13.402;2023-03-01T14:45:15;3.25;;;2.30;;
31298;SDS011;17927;52.350;13.402;2023-03-01T14:47:43;4.20;;;2.20;;
31298;SDS011;17927;52.350;13.402;2023-03-01T14:50:15;2.03;;;1.92;;
31298;SDS011;17927;52.350;13.402;2023-03-01T14:52:46;6.57;;;2.05;;
31298;SDS011;17927;52.350;13.402;2023-03-01T14:55:17;2.67;;;2.05;;
31298;SDS011;17927;52.350;13.402;2023-03-01T14:57:47;2.63;;;2.38;;
31298;SDS011;17927;52.350;13.402;2023-03-01T15:00:21;8.88;;;2.13;;
31298;SDS011;17927;52.350;13.402;2023-03-01T15:02:49;2.70;;;2.20;;
31298;SDS011;17927;52.350;13.402;2023-03-01T15:05:18;3.72;;;2.35;;
31298;SDS011;17927;52.350;13.402;2023-03-01T15:07:49;2.75;;;2.47;;
31298;SDS011;17927;52.350;13.402;2023-03-01T15:10:23;3.35;;;2.47;;
31298;SDS011;17927;52.350;13.402;2023-03-01T15:12:51;2.67;;;2.03;;
31298;SDS011;17927;52.350;13.402;2023-03-01T15:15:26;2.58;;;1.75;;
31298;SDS011;17927;52.350;13.402;2023-03-01T15:17:57;1.75;;;1.65;;
31298;SDS011;17927;52.350;13.402;2023-03-01T15:20:25;2.45;;;2.25;;
31298;SDS011;17927;52.350;13.402;2023-03-01T15:22:52;3.03;;;2.00;;
31298;SDS011;17927;52.350;13.402;2023-03-01T15:25:20;5.72;;;2.00;;
31298;SDS011;17927;52.350;13.402;2023-03-01T15:27:49;4.43;;;2.72;;
31298;SDS011;17927;52.350;13.402;2023-03-01T15:30:17;3.30;;;2.55;;
31298;SDS011;17927;52.350;13.402;2023-03-01T15:32:45;2.92;;;2.60;;
31298;SDS011;17927;52.350;13.402;2023-03-01T15:38:31;3.72;;;3.25;;
31298;SDS011;17927;52.350;13.402;2023-03-01T15:41:19;5.32;;;3.72;;
31298;SDS011;17927;52.350;13.402;2023-03-01T15:43:48;3.30;;;2.95;;
31298;SDS011;17927;52.350;13.402;2023-03-01T15:46:16;3.38;;;2.38;;
31298;SDS011;17927;52.350;13.402;2023-03-01T15:48:54;6.32;;;2.60;;
31298;SDS011;17927;52.350;13.402;2023-03-01T15:51:26;2.70;;;2.45;;